Time;durP1;ratioP1;P1;durP2;ratioP2;P2;SDS_P1;SDS_P2;PMS_P1;PMS_P2;Temp;Humidity;BMP_temperature;BMP_pressure;BME280_temperature;BME280_humidity;BME280_pressure;Samples;Min_cycle;Max_cycle;Signal;HPM_P1;HPM_P2
2022/01/14 00:01:15;;;;;;;;;;;2.00;99.90;;;;;;5109920;28;19919;-75
2022/01/14 00:03:40;;;;;;;;;;;2.00;99.90;;;;;;5109868;28;19908;-75
2022/01/14 00:06:06;;;;;;;;;;;2.10;99.90;;;;;;5113819;28;19920;-75
2022/01/14 00:08:32;;;;;;;;;;;2.10;99.90;;;;;;5112091;28;19983;-76
2022/01/14 00:10:58;;;;;;;;;;;2.10;99.90;;;;;;5113365;28;20341;-75
2022/01/14 00:13:49;;;;;;;;;;;2.10;99.90;;;;;;5112918;28;19916;-75
2022/01/14 00:16:15;;;;;;;;;;;2.10;99.90;;;;;;5113493;28;19916;-75
2022/01/14 00:18:41;;;;;;;;;;;2.10;99.90;;;;;;5111872;28;19918;-75
2022/01/14 00:21:06;;;;;;;;;;;2.10;99.90;;;;;;5111930;28;19928;-75
2022/01/14 00:23:37;;;;;;;;;;;2.10;99.90;;;;;;5112767;28;19915;-75
2022/01/14 00:34:35;;;;;;;;;;;2.10;99.90;;;;;;5089728;28;19915;-75
2022/01/14 00:37:01;;;;;;;;;;;2.10;99.90;;;;;;5108542;28;20129;-75
2022/01/14 00:39:27;;;;;;;;;;;2.20;99.90;;;;;;5113027;28;19939;-75
2022/01/14 00:41:52;;;;;;;;;;;2.20;99.90;;;;;;5113213;28;19928;-75
2022/01/14 00:44:19;;;;;;;;;;;2.20;99.90;;;;;;5111748;28;19912;-75
2022/01/14 00:46:45;;;;;;;;;;;2.20;99.90;;;;;;5112743;28;19919;-74
2022/01/14 00:49:11;;;;;;;;;;;2.20;99.90;;;;;;5113121;28;19914;-76
2022/01/14 00:51:37;;;;;;;;;;;2.30;99.90;;;;;;5112955;28;20030;-75
2022/01/14 00:54:04;;;;;;;;;;;2.30;99.90;;;;;;5112764;28;19986;-75
2022/01/14 00:56:45;;;;;;;;;;;2.30;99.90;;;;;;5110939;28;20291;-75
2022/01/14 00:59:14;;;;;;;;;;;2.30;99.90;;;;;;5111520;28;20379;-75
2022/01/14 01:01:43;;;;;;;;;;;2.30;99.90;;;;;;5110860;28;19926;-75
2022/01/14 01:04:12;;;;;;;;;;;2.30;99.90;;;;;;5112485;28;19968;-77
2022/01/14 01:06:38;;;;;;;;;;;2.30;99.90;;;;;;5110983;28;20022;-76
2022/01/14 01:09:09;;;;;;;;;;;2.30;99.90;;;;;;5112743;28;19912;-75
2022/01/14 01:11:38;;;;;;;;;;;2.30;99.90;;;;;;5108774;28;20395;-76
2022/01/14 01:14:17;;;;;;;;;;;2.30;99.90;;;;;;5090404;28;20393;-76
2022/01/14 01:16:43;;;;;;;;;;;2.30;99.90;;;;;;5093055;28;19923;-75
2022/01/14 01:19:10;;;;;;;;;;;2.40;99.90;;;;;;5110986;28;19991;-75
2022/01/14 01:21:36;;;;;;;;;;;2.40;99.90;;;;;;5111795;28;19976;-74
2022/01/14 01:24:01;;;;;;;;;;;2.50;99.90;;;;;;5112022;28;19907;-75
2022/01/14 01:26:33;;;;;;;;;;;2.50;99.90;;;;;;5109699;27;19966;-75
2022/01/14 01:31:40;;;;;;;;;;;2.50;99.90;;;;;;5091647;28;20034;-75
2022/01/14 01:34:10;;;;;;;;;;;2.50;99.90;;;;;;5111644;28;19947;-75
2022/01/14 01:36:36;;;;;;;;;;;2.50;99.90;;;;;;5111653;28;20283;-75
2022/01/14 01:39:04;;;;;;;;;;;2.50;99.90;;;;;;5110417;28;19918;-74
2022/01/14 01:41:29;;;;;;;;;;;2.50;99.90;;;;;;5111426;28;20011;-74
2022/01/14 01:43:55;;;;;;;;;;;2.60;99.90;;;;;;5111844;28;20002;-74
2022/01/14 01:46:23;;;;;;;;;;;2.60;99.90;;;;;;5110589;28;19919;-75
2022/01/14 01:48:49;;;;;;;;;;;2.60;99.90;;;;;;5071075;28;19912;-75
2022/01/14 01:51:14;;;;;;;;;;;2.70;99.90;;;;;;5071395;28;19970;-75
2022/01/14 01:53:40;;;;;;;;;;;2.70;99.90;;;;;;5108309;28;19908;-75
2022/01/14 01:56:06;;;;;;;;;;;2.70;99.90;;;;;;5109951;28;19916;-75
2022/01/14 01:58:31;;;;;;;;;;;2.70;99.90;;;;;;5111830;28;20006;-75
2022/01/14 02:00:57;;;;;;;;;;;2.70;99.90;;;;;;5110239;28;19916;-75
2022/01/14 02:03:22;;;;;;;;;;;2.70;99.90;;;;;;5111118;28;20279;-75
2022/01/14 02:05:48;;;;;;;;;;;2.70;99.90;;;;;;5109547;28;19984;-75
2022/01/14 02:08:14;;;;;;;;;;;2.70;99.90;;;;;;5111115;28;19908;-76
2022/01/14 02:10:40;;;;;;;;;;;2.60;99.90;;;;;;5111007;28;20409;-75
2022/01/14 02:13:06;;;;;;;;;;;2.70;99.90;;;;;;5096390;28;19908;-73
2022/01/14 02:23:50;;;;;;;;;;;2.70;99.90;;;;;;5111298;28;19915;-75
2022/01/14 02:26:16;;;;;;;;;;;2.70;99.90;;;;;;5110836;28;20342;-75
2022/01/14 02:28:42;;;;;;;;;;;2.70;99.90;;;;;;5110411;28;20410;-75
2022/01/14 02:31:08;;;;;;;;;;;2.70;99.90;;;;;;5111089;28;20023;-75
2022/01/14 02:33:34;;;;;;;;;;;2.70;99.90;;;;;;5104953;28;20368;-75
2022/01/14 02:36:00;;;;;;;;;;;2.70;99.90;;;;;;5076573;28;20026;-76
2022/01/14 02:38:25;;;;;;;;;;;2.70;99.90;;;;;;5107998;28;19974;-75
2022/01/14 02:40:51;;;;;;;;;;;2.70;99.90;;;;;;5110185;28;20367;-75
2022/01/14 02:43:17;;;;;;;;;;;2.70;99.90;;;;;;5110029;28;19912;-75
2022/01/14 02:45:50;;;;;;;;;;;2.80;99.90;;;;;;5110933;28;19915;-74
2022/01/14 02:48:17;;;;;;;;;;;2.80;99.90;;;;;;5109983;28;20309;-75
2022/01/14 02:50:55;;;;;;;;;;;2.80;99.90;;;;;;5111855;28;19955;-75
2022/01/14 02:53:43;;;;;;;;;;;2.70;99.90;;;;;;5111349;28;19919;-75
2022/01/14 02:56:11;;;;;;;;;;;2.80;99.90;;;;;;5109795;28;19934;-75
2022/01/14 02:58:37;;;;;;;;;;;2.80;99.90;;;;;;5111240;28;19916;-75
2022/01/14 03:01:07;;;;;;;;;;;2.80;99.90;;;;;;5110858;28;19915;-75
2022/01/14 03:03:34;;;;;;;;;;;2.80;99.90;;;;;;5109497;28;19976;-75
2022/01/14 03:06:03;;;;;;;;;;;2.80;99.90;;;;;;5110635;28;20362;-75
2022/01/14 03:08:28;;;;;;;;;;;2.80;99.90;;;;;;5109190;28;19912;-75
2022/01/14 03:11:04;;;;;;;;;;;2.70;99.90;;;;;;5110343;28;19998;-74
2022/01/14 03:13:30;;;;;;;;;;;2.70;99.90;;;;;;5092483;28;20388;-75
2022/01/14 03:15:55;;;;;;;;;;;2.80;99.90;;;;;;5090138;28;19915;-76
2022/01/14 03:18:30;;;;;;;;;;;2.80;99.90;;;;;;5107120;28;19916;-76
2022/01/14 03:21:09;;;;;;;;;;;2.80;99.90;;;;;;5110574;28;19912;-73
2022/01/14 03:23:42;;;;;;;;;;;2.80;99.90;;;;;;5110486;28;19922;-74
2022/01/14 03:26:08;;;;;;;;;;;2.80;99.90;;;;;;5110558;28;19962;-74
2022/01/14 03:28:33;;;;;;;;;;;2.70;99.90;;;;;;5108655;28;19951;-75
2022/01/14 03:30:59;;;;;;;;;;;2.70;99.90;;;;;;5110534;28;19916;-75
2022/01/14 03:33:24;;;;;;;;;;;2.80;99.90;;;;;;5110882;28;19919;-75
2022/01/14 03:35:50;;;;;;;;;;;2.80;99.90;;;;;;5110168;28;19912;-76
2022/01/14 03:38:16;;;;;;;;;;;2.80;99.90;;;;;;5110537;28;20420;-75
2022/01/14 03:40:42;;;;;;;;;;;2.80;99.90;;;;;;5112051;28;20489;-74
2022/01/14 03:43:07;;;;;;;;;;;2.80;99.90;;;;;;5114050;28;20002;-75
2022/01/14 03:45:33;;;;;;;;;;;2.80;99.90;;;;;;5112684;28;19995;-74
2022/01/14 03:47:59;;;;;;;;;;;2.80;99.90;;;;;;5114293;28;19912;-74
2022/01/14 03:50:25;;;;;;;;;;;2.90;99.90;;;;;;5112742;28;20496;-75
2022/01/14 03:52:51;;;;;;;;;;;2.80;99.90;;;;;;5114477;28;19912;-76
2022/01/14 03:55:16;;;;;;;;;;;2.80;99.90;;;;;;5114464;28;19912;-75
2022/01/14 03:57:42;;;;;;;;;;;2.80;99.90;;;;;;5113701;28;19981;-75
2022/01/14 04:00:08;;;;;;;;;;;2.80;99.90;;;;;;5112630;28;20367;-74
2022/01/14 04:02:33;;;;;;;;;;;2.80;99.90;;;;;;5113696;28;20002;-75
2022/01/14 04:04:59;;;;;;;;;;;2.80;99.90;;;;;;5114254;28;20384;-76
2022/01/14 04:07:24;;;;;;;;;;;2.90;99.90;;;;;;5103456;28;19916;-75
2022/01/14 04:09:50;;;;;;;;;;;2.90;99.90;;;;;;5094218;28;19916;-75
2022/01/14 04:12:29;;;;;;;;;;;2.90;99.90;;;;;;5093948;28;19916;-74
2022/01/14 04:17:20;;;;;;;;;;;2.80;99.90;;;;;;5101889;28;19918;-75
2022/01/14 04:19:45;;;;;;;;;;;2.80;99.90;;;;;;5113432;28;19929;-74
2022/01/14 04:22:11;;;;;;;;;;;2.80;99.90;;;;;;5113601;28;20419;-75
2022/01/14 04:24:36;;;;;;;;;;;2.80;99.90;;;;;;5114594;28;19938;-74
2022/01/14 04:27:02;;;;;;;;;;;2.80;99.90;;;;;;5113774;28;20252;-75
2022/01/14 04:29:28;;;;;;;;;;;2.90;99.90;;;;;;5114213;28;19915;-74
2022/01/14 04:31:53;;;;;;;;;;;2.90;99.90;;;;;;5112072;28;19927;-74
2022/01/14 04:34:19;;;;;;;;;;;3.00;99.90;;;;;;5114129;28;20378;-75
2022/01/14 04:36:44;;;;;;;;;;;3.00;99.90;;;;;;5112367;28;20271;-76
2022/01/14 04:39:10;;;;;;;;;;;3.00;99.90;;;;;;5112350;28;20244;-75
2022/01/14 04:41:36;;;;;;;;;;;3.00;99.90;;;;;;5113551;28;20410;-74
2022/01/14 04:44:02;;;;;;;;;;;3.00;99.90;;;;;;5112072;28;19965;-75
2022/01/14 04:48:53;;;;;;;;;;;2.90;99.90;;;;;;5113511;28;20290;-76
2022/01/14 04:51:21;;;;;;;;;;;2.90;99.90;;;;;;5111614;28;19916;-74
2022/01/14 04:53:47;;;;;;;;;;;3.00;99.90;;;;;;5112385;28;19918;-75
2022/01/14 04:56:13;;;;;;;;;;;2.90;99.90;;;;;;5113651;28;19920;-75
2022/01/14 04:58:38;;;;;;;;;;;3.00;99.90;;;;;;5112951;28;20446;-75
2022/01/14 05:01:04;;;;;;;;;;;3.00;99.90;;;;;;5113344;28;19946;-75
2022/01/14 05:03:30;;;;;;;;;;;3.00;99.90;;;;;;5112971;28;19916;-74
2022/01/14 05:05:58;;;;;;;;;;;3.00;99.90;;;;;;5113029;28;19957;-75
2022/01/14 05:08:30;;;;;;;;;;;3.00;99.90;;;;;;5111218;28;19907;-74
2022/01/14 05:13:23;;;;;;;;;;;2.90;99.90;;;;;;5095511;28;19908;-74
2022/01/14 05:15:50;;;;;;;;;;;3.00;99.90;;;;;;5091972;28;19908;-74
2022/01/14 05:18:15;;;;;;;;;;;3.00;99.90;;;;;;5098259;28;19935;-74
2022/01/14 05:20:41;;;;;;;;;;;3.00;99.90;;;;;;5091955;28;19959;-74
2022/01/14 05:23:06;;;;;;;;;;;3.00;99.90;;;;;;5105167;28;20334;-75
2022/01/14 05:25:32;;;;;;;;;;;3.00;99.90;;;;;;5111223;28;19915;-76
2022/01/14 05:27:58;;;;;;;;;;;3.00;99.90;;;;;;5110527;28;19920;-75
2022/01/14 05:30:23;;;;;;;;;;;3.00;99.90;;;;;;5112987;28;19934;-75
2022/01/14 05:32:52;;;;;;;;;;;3.00;99.90;;;;;;5098515;28;19916;-76
2022/01/14 05:35:19;;;;;;;;;;;3.00;99.90;;;;;;5091991;28;19908;-76
2022/01/14 05:37:45;;;;;;;;;;;2.90;99.90;;;;;;5101956;28;20014;-75
2022/01/14 05:40:11;;;;;;;;;;;3.00;99.90;;;;;;5111910;28;20002;-76
2022/01/14 05:42:37;;;;;;;;;;;3.00;99.90;;;;;;5112257;28;19927;-76
2022/01/14 05:45:06;;;;;;;;;;;3.10;99.90;;;;;;5111822;28;19907;-69
2022/01/14 05:47:32;;;;;;;;;;;3.10;99.90;;;;;;5111165;28;19916;-68
2022/01/14 05:49:57;;;;;;;;;;;3.20;99.90;;;;;;5111248;28;19908;-68
2022/01/14 05:52:23;;;;;;;;;;;3.30;99.90;;;;;;5103094;28;19995;-68
2022/01/14 05:54:51;;;;;;;;;;;3.30;99.90;;;;;;5111160;28;19912;-69
2022/01/14 05:57:17;;;;;;;;;;;3.30;99.90;;;;;;5110022;28;20010;-68
2022/01/14 05:59:42;;;;;;;;;;;3.30;99.90;;;;;;5110748;28;20385;-68
2022/01/14 06:02:08;;;;;;;;;;;3.30;99.90;;;;;;5109237;28;19926;-69
2022/01/14 06:04:34;;;;;;;;;;;3.30;99.90;;;;;;5110630;28;19911;-68
2022/01/14 06:07:02;;;;;;;;;;;3.30;99.90;;;;;;5108836;28;19916;-69
2022/01/14 06:09:27;;;;;;;;;;;3.30;99.90;;;;;;5110830;28;20270;-68
2022/01/14 06:11:53;;;;;;;;;;;3.20;99.90;;;;;;5106197;28;19920;-69
2022/01/14 06:14:18;;;;;;;;;;;3.20;99.90;;;;;;5090577;28;20003;-68
2022/01/14 06:16:44;;;;;;;;;;;3.20;99.90;;;;;;5092645;28;19915;-69
2022/01/14 06:19:09;;;;;;;;;;;3.30;99.90;;;;;;5110166;28;19908;-68
2022/01/14 06:21:35;;;;;;;;;;;3.30;99.90;;;;;;5109342;28;19924;-68
2022/01/14 06:24:01;;;;;;;;;;;3.20;99.90;;;;;;5109278;28;20338;-62
2022/01/14 06:26:26;;;;;;;;;;;3.30;99.90;;;;;;5084309;28;19920;-69
2022/01/14 06:28:52;;;;;;;;;;;3.50;99.90;;;;;;5080879;28;20368;-68
2022/01/14 06:31:18;;;;;;;;;;;3.40;99.90;;;;;;5090899;28;19919;-67
2022/01/14 06:33:44;;;;;;;;;;;3.40;99.90;;;;;;5079563;28;20006;-66
2022/01/14 06:36:09;;;;;;;;;;;3.40;99.90;;;;;;5088144;28;19931;-66
2022/01/14 06:38:35;;;;;;;;;;;3.40;99.90;;;;;;5090849;28;19919;-66
2022/01/14 06:41:02;;;;;;;;;;;3.30;99.90;;;;;;5092465;28;19935;-69
2022/01/14 06:43:27;;;;;;;;;;;3.40;99.90;;;;;;5106962;28;19912;-67
2022/01/14 06:45:53;;;;;;;;;;;3.40;99.90;;;;;;5073771;28;19928;-67
2022/01/14 06:48:19;;;;;;;;;;;3.50;99.90;;;;;;5086875;28;19920;-66
2022/01/14 06:50:44;;;;;;;;;;;3.60;99.90;;;;;;5070800;28;19913;-67
2022/01/14 06:53:10;;;;;;;;;;;3.60;99.90;;;;;;5092163;28;19931;-66
2022/01/14 06:55:35;;;;;;;;;;;3.60;99.90;;;;;;5068912;28;20014;-69
2022/01/14 06:58:01;;;;;;;;;;;3.60;99.90;;;;;;5106795;28;19955;-68
2022/01/14 07:00:28;;;;;;;;;;;3.50;99.90;;;;;;5098685;28;19912;-68
2022/01/14 07:02:54;;;;;;;;;;;3.50;99.90;;;;;;5081434;28;20369;-67
2022/01/14 07:05:20;;;;;;;;;;;3.50;99.90;;;;;;5084825;28;20352;-66
2022/01/14 07:07:46;;;;;;;;;;;3.60;99.90;;;;;;5087562;28;19927;-68
2022/01/14 07:10:11;;;;;;;;;;;3.60;99.90;;;;;;5069262;28;19912;-65
2022/01/14 07:12:38;;;;;;;;;;;3.60;99.90;;;;;;5089190;28;19968;-67
2022/01/14 07:15:10;;;;;;;;;;;3.60;99.90;;;;;;5084652;28;20368;-69
2022/01/14 07:17:36;;;;;;;;;;;4.20;99.90;;;;;;5096003;28;19932;-65
2022/01/14 07:20:06;;;;;;;;;;;4.00;99.90;;;;;;5083365;28;19916;-66
2022/01/14 07:22:32;;;;;;;;;;;3.90;99.90;;;;;;5082207;28;19927;-63
2022/01/14 07:24:58;;;;;;;;;;;3.90;99.90;;;;;;5075436;28;20032;-70
2022/01/14 07:27:24;;;;;;;;;;;3.90;99.90;;;;;;5088427;28;20316;-71
2022/01/14 07:29:50;;;;;;;;;;;3.80;99.90;;;;;;5105209;28;20020;-71
2022/01/14 07:32:15;;;;;;;;;;;3.80;99.90;;;;;;5089398;28;19917;-71
2022/01/14 07:34:41;;;;;;;;;;;3.70;99.90;;;;;;5084097;28;20391;-71
2022/01/14 07:37:07;;;;;;;;;;;3.70;99.90;;;;;;5086797;28;20015;-72
2022/01/14 07:39:33;;;;;;;;;;;3.70;99.90;;;;;;5079875;28;20533;-72
2022/01/14 07:41:58;;;;;;;;;;;3.70;99.90;;;;;;5108917;28;20247;-72
2022/01/14 07:44:24;;;;;;;;;;;3.70;99.90;;;;;;5099652;28;20395;-72
2022/01/14 07:46:50;;;;;;;;;;;3.70;99.90;;;;;;5100955;28;19920;-73
2022/01/14 07:49:16;;;;;;;;;;;3.70;99.90;;;;;;5090882;28;19916;-72
2022/01/14 07:51:41;;;;;;;;;;;3.80;99.90;;;;;;5093326;28;20466;-72
2022/01/14 07:54:08;;;;;;;;;;;3.80;99.90;;;;;;5085080;28;19916;-72
2022/01/14 07:56:35;;;;;;;;;;;3.80;99.90;;;;;;5093138;28;19920;-71
2022/01/14 07:59:00;;;;;;;;;;;3.80;99.90;;;;;;5086429;28;19912;-72
2022/01/14 08:01:26;;;;;;;;;;;3.80;99.90;;;;;;5092227;28;20033;-71
2022/01/14 08:03:53;;;;;;;;;;;3.90;99.90;;;;;;5089502;28;20022;-73
2022/01/14 08:06:19;;;;;;;;;;;3.90;99.90;;;;;;5084080;28;19919;-71
2022/01/14 08:08:45;;;;;;;;;;;3.90;99.90;;;;;;5089013;28;20551;-73
2022/01/14 08:11:10;;;;;;;;;;;4.00;99.90;;;;;;5094785;28;20019;-73
2022/01/14 08:13:36;;;;;;;;;;;4.00;99.90;;;;;;5095726;28;19916;-73
2022/01/14 08:16:02;;;;;;;;;;;4.10;99.90;;;;;;5087700;28;19923;-73
2022/01/14 08:18:28;;;;;;;;;;;4.10;99.90;;;;;;5098926;28;20019;-70
2022/01/14 08:20:54;;;;;;;;;;;4.10;99.90;;;;;;5096752;28;19947;-74
2022/01/14 08:23:19;;;;;;;;;;;4.20;99.90;;;;;;5090825;28;19917;-71
2022/01/14 08:25:45;;;;;;;;;;;4.20;99.90;;;;;;5084293;28;19956;-72
2022/01/14 08:28:11;;;;;;;;;;;4.30;99.90;;;;;;5079400;28;20010;-73
2022/01/14 08:30:36;;;;;;;;;;;4.30;99.90;;;;;;5079358;28;19916;-74
2022/01/14 08:33:02;;;;;;;;;;;4.40;99.90;;;;;;5077403;28;19954;-67
2022/01/14 08:35:29;;;;;;;;;;;4.40;99.90;;;;;;5077810;28;19916;-68
2022/01/14 08:37:54;;;;;;;;;;;4.40;99.90;;;;;;5079527;28;20003;-68
2022/01/14 08:40:20;;;;;;;;;;;4.40;99.90;;;;;;5078748;28;20023;-69
2022/01/14 08:42:52;;;;;;;;;;;4.30;99.90;;;;;;5085028;28;20023;-69
2022/01/14 08:45:21;;;;;;;;;;;4.30;99.90;;;;;;5078630;28;19924;-69
2022/01/14 08:47:47;;;;;;;;;;;4.30;99.90;;;;;;5080820;28;19923;-68
2022/01/14 08:50:12;;;;;;;;;;;4.30;99.90;;;;;;5084783;28;19992;-68
2022/01/14 08:52:38;;;;;;;;;;;4.30;99.90;;;;;;5078032;28;19921;-68
2022/01/14 08:55:03;;;;;;;;;;;4.40;99.90;;;;;;5083484;28;19928;-68
2022/01/14 08:57:29;;;;;;;;;;;4.40;99.90;;;;;;5085020;28;20263;-69
2022/01/14 08:59:55;;;;;;;;;;;4.40;99.90;;;;;;5075581;28;19931;-69
2022/01/14 09:02:21;;;;;;;;;;;4.40;99.90;;;;;;5082564;28;19919;-69
2022/01/14 09:04:47;;;;;;;;;;;4.50;99.90;;;;;;5096322;27;19931;-69
2022/01/14 09:07:13;;;;;;;;;;;4.50;99.90;;;;;;5082933;28;20363;-69
2022/01/14 09:09:38;;;;;;;;;;;4.50;99.90;;;;;;5074705;28;20618;-69
2022/01/14 09:12:05;;;;;;;;;;;4.50;99.90;;;;;;5083116;28;19922;-69
2022/01/14 09:14:30;;;;;;;;;;;4.40;99.90;;;;;;5080376;28;19912;-70
2022/01/14 09:16:56;;;;;;;;;;;4.40;99.90;;;;;;5078313;28;19943;-69
2022/01/14 09:19:22;;;;;;;;;;;4.40;99.90;;;;;;5085384;28;19920;-69
2022/01/14 09:21:49;;;;;;;;;;;4.40;99.90;;;;;;5084396;28;19927;-69
2022/01/14 09:24:14;;;;;;;;;;;4.40;99.90;;;;;;5080280;28;20386;-70
2022/01/14 09:26:41;;;;;;;;;;;4.40;99.90;;;;;;5079270;28;20395;-67
2022/01/14 09:29:07;;;;;;;;;;;4.40;99.90;;;;;;5076467;28;21406;-74
2022/01/14 09:31:34;;;;;;;;;;;4.30;99.90;;;;;;5073788;28;19924;-75
2022/01/14 09:33:59;;;;;;;;;;;4.40;99.90;;;;;;5077381;28;19974;-67
2022/01/14 09:36:25;;;;;;;;;;;4.40;99.90;;;;;;5078800;28;20012;-66
2022/01/14 09:38:50;;;;;;;;;;;4.50;99.90;;;;;;5079150;28;19923;-72
2022/01/14 09:41:17;;;;;;;;;;;4.50;99.90;;;;;;5078251;28;19936;-69
2022/01/14 09:43:43;;;;;;;;;;;4.50;99.90;;;;;;5081432;28;19920;-69
2022/01/14 09:46:10;;;;;;;;;;;4.50;99.90;;;;;;5074135;28;19985;-69
2022/01/14 09:48:37;;;;;;;;;;;4.50;99.90;;;;;;5080182;28;19917;-69
2022/01/14 09:51:03;;;;;;;;;;;4.50;99.90;;;;;;5085608;28;19986;-70
2022/01/14 09:53:29;;;;;;;;;;;4.50;99.90;;;;;;5077289;28;20001;-69
2022/01/14 09:55:55;;;;;;;;;;;4.50;99.90;;;;;;5078441;28;19967;-69
2022/01/14 09:58:24;;;;;;;;;;;4.50;99.90;;;;;;5080911;28;19920;-69
2022/01/14 10:00:49;;;;;;;;;;;4.50;99.90;;;;;;5087363;28;19920;-69
2022/01/14 10:03:22;;;;;;;;;;;4.50;99.90;;;;;;5086685;28;20237;-68
2022/01/14 10:05:51;;;;;;;;;;;4.50;99.90;;;;;;5088740;28;19968;-69
2022/01/14 10:08:24;;;;;;;;;;;4.50;99.90;;;;;;5082991;28;19923;-69
2022/01/14 10:10:59;;;;;;;;;;;4.50;99.90;;;;;;5083307;28;19927;-70
2022/01/14 10:13:29;;;;;;;;;;;4.50;99.90;;;;;;5073525;28;19936;-70
2022/01/14 10:16:05;;;;;;;;;;;4.50;99.90;;;;;;5078268;28;19926;-68
2022/01/14 10:18:33;;;;;;;;;;;4.60;99.90;;;;;;5084171;28;19924;-69
2022/01/14 10:21:03;;;;;;;;;;;4.50;99.90;;;;;;5080006;28;19928;-69
2022/01/14 10:23:38;;;;;;;;;;;4.60;99.90;;;;;;5080406;28;19943;-68
2022/01/14 10:26:04;;;;;;;;;;;4.60;99.90;;;;;;5078762;28;19924;-68
2022/01/14 10:28:30;;;;;;;;;;;4.60;99.90;;;;;;5081490;28;19927;-69
2022/01/14 10:30:55;;;;;;;;;;;4.70;99.90;;;;;;5076965;28;19920;-68
2022/01/14 10:33:25;;;;;;;;;;;4.70;99.90;;;;;;5076177;28;19946;-68
2022/01/14 10:35:51;;;;;;;;;;;4.70;99.90;;;;;;5073222;28;19916;-70
2022/01/14 10:38:17;;;;;;;;;;;4.80;99.90;;;;;;5076795;28;20007;-65
2022/01/14 10:40:49;;;;;;;;;;;4.80;99.90;;;;;;5081439;28;19931;-70
2022/01/14 10:43:17;;;;;;;;;;;4.90;99.90;;;;;;5075038;28;20011;-69
2022/01/14 10:45:43;;;;;;;;;;;4.90;99.90;;;;;;5071549;28;19999;-68
2022/01/14 10:48:10;;;;;;;;;;;4.90;99.90;;;;;;5076957;28;19920;-68
2022/01/14 10:50:35;;;;;;;;;;;4.90;99.90;;;;;;5074383;28;19956;-70
2022/01/14 10:53:06;;;;;;;;;;;4.90;99.90;;;;;;5082803;28;20052;-70
2022/01/14 10:55:31;;;;;;;;;;;4.90;99.90;;;;;;5076482;28;20386;-70
2022/01/14 10:57:57;;;;;;;;;;;4.90;99.90;;;;;;5083770;28;19924;-69
2022/01/14 11:00:24;;;;;;;;;;;4.80;99.90;;;;;;5082189;28;20396;-69
2022/01/14 11:02:49;;;;;;;;;;;4.80;99.90;;;;;;5072195;28;19920;-71
2022/01/14 11:05:16;;;;;;;;;;;4.80;99.90;;;;;;5081720;28;19927;-70
2022/01/14 11:07:42;;;;;;;;;;;4.80;99.90;;;;;;5081016;28;21351;-68
2022/01/14 11:10:22;;;;;;;;;;;4.80;99.90;;;;;;5072032;28;19920;-66
2022/01/14 11:12:48;;;;;;;;;;;4.80;99.90;;;;;;5078442;28;20384;-70
2022/01/14 11:15:14;;;;;;;;;;;4.80;99.90;;;;;;5080950;28;19947;-69
2022/01/14 11:17:41;;;;;;;;;;;4.80;99.90;;;;;;5078658;28;19931;-68
2022/01/14 11:20:09;;;;;;;;;;;4.80;99.90;;;;;;5075037;28;19924;-71
2022/01/14 11:25:19;;;;;;;;;;;4.80;99.90;;;;;;5077407;28;19927;-71
2022/01/14 11:27:54;;;;;;;;;;;4.80;99.90;;;;;;5074717;28;19973;-70
2022/01/14 11:30:19;;;;;;;;;;;4.80;99.90;;;;;;5084966;28;19915;-69
2022/01/14 11:32:55;;;;;;;;;;;4.80;99.90;;;;;;5090592;28;19924;-69
2022/01/14 11:35:25;;;;;;;;;;;4.80;99.90;;;;;;5074552;28;19959;-70
2022/01/14 11:37:51;;;;;;;;;;;4.80;99.90;;;;;;5084132;28;20408;-70
2022/01/14 11:40:17;;;;;;;;;;;4.80;99.90;;;;;;5080498;28;20026;-68
2022/01/14 11:42:44;;;;;;;;;;;4.80;99.90;;;;;;5075986;28;19928;-68
2022/01/14 11:45:15;;;;;;;;;;;4.80;99.90;;;;;;5079713;28;20664;-68
2022/01/14 11:47:43;;;;;;;;;;;4.80;99.90;;;;;;5084764;28;19956;-69
2022/01/14 11:50:24;;;;;;;;;;;4.80;99.90;;;;;;5083316;28;20367;-73
2022/01/14 11:52:50;;;;;;;;;;;4.80;99.90;;;;;;5079952;28;20410;-70
2022/01/14 11:55:22;;;;;;;;;;;4.80;99.90;;;;;;5077651;28;19929;-69
2022/01/14 11:57:49;;;;;;;;;;;4.40;99.90;;;;;;5081405;28;20544;-70
2022/01/14 12:00:27;;;;;;;;;;;4.80;99.90;;;;;;5076867;28;19919;-69
2022/01/14 12:02:53;;;;;;;;;;;4.80;99.90;;;;;;5089450;28;19932;-69
2022/01/14 12:05:20;;;;;;;;;;;4.80;99.90;;;;;;5087034;28;19916;-69
2022/01/14 12:08:16;;;;;;;;;;;4.80;99.90;;;;;;5092902;28;19916;-70
2022/01/14 12:10:47;;;;;;;;;;;4.70;99.90;;;;;;5067406;28;20628;-70
2022/01/14 12:13:16;;;;;;;;;;;4.80;99.90;;;;;;5086774;28;20391;-69
2022/01/14 12:15:47;;;;;;;;;;;4.80;99.90;;;;;;5079871;28;19912;-68
2022/01/14 12:18:12;;;;;;;;;;;4.70;99.90;;;;;;5083524;28;19920;-69
2022/01/14 12:20:47;;;;;;;;;;;4.70;99.90;;;;;;5082163;28;20376;-68
2022/01/14 12:23:17;;;;;;;;;;;4.70;99.90;;;;;;5085647;28;19920;-69
2022/01/14 12:25:43;;;;;;;;;;;4.70;99.90;;;;;;5080903;28;21764;-67
2022/01/14 12:28:16;;;;;;;;;;;4.70;99.90;;;;;;5085064;28;19969;-66
2022/01/14 12:30:55;;;;;;;;;;;4.70;99.90;;;;;;5080763;28;20783;-67
2022/01/14 12:33:40;;;;;;;;;;;4.70;99.90;;;;;;5084856;28;19922;-68
2022/01/14 12:36:10;;;;;;;;;;;4.70;99.90;;;;;;5081455;28;19921;-67
2022/01/14 12:38:37;;;;;;;;;;;4.70;99.90;;;;;;5084173;28;19913;-68
2022/01/14 12:41:03;;;;;;;;;;;4.70;99.90;;;;;;5080833;28;19928;-71
2022/01/14 12:43:30;;;;;;;;;;;4.60;99.90;;;;;;5077118;28;19969;-68
2022/01/14 12:46:24;;;;;;;;;;;4.70;99.90;;;;;;5078539;28;19919;-71
2022/01/14 12:48:56;;;;;;;;;;;4.70;99.90;;;;;;5079422;28;20113;-72
2022/01/14 12:51:21;;;;;;;;;;;4.60;99.90;;;;;;5081451;28;19968;-70
2022/01/14 12:53:48;;;;;;;;;;;4.70;99.90;;;;;;5077087;28;20368;-68
2022/01/14 12:56:16;;;;;;;;;;;4.60;99.90;;;;;;5080785;28;20069;-69
2022/01/14 12:58:50;;;;;;;;;;;4.60;99.90;;;;;;5080747;28;20025;-68
2022/01/14 13:01:16;;;;;;;;;;;4.60;99.90;;;;;;5078053;28;19958;-70
2022/01/14 13:03:42;;;;;;;;;;;4.70;99.90;;;;;;5084132;28;19912;-68
2022/01/14 13:06:07;;;;;;;;;;;4.60;99.90;;;;;;5078813;28;19970;-69
2022/01/14 13:08:33;;;;;;;;;;;4.60;99.90;;;;;;5075041;28;19927;-67
2022/01/14 13:11:05;;;;;;;;;;;4.60;99.90;;;;;;5085278;28;20420;-68
2022/01/14 13:13:31;;;;;;;;;;;4.50;99.90;;;;;;5079272;28;19951;-69
2022/01/14 13:16:01;;;;;;;;;;;4.50;99.90;;;;;;5077859;28;19966;-67
2022/01/14 13:18:30;;;;;;;;;;;4.50;99.90;;;;;;5081176;28;19922;-68
2022/01/14 13:20:55;;;;;;;;;;;4.50;99.90;;;;;;5077964;28;20535;-70
2022/01/14 13:23:21;;;;;;;;;;;4.50;99.90;;;;;;5074596;28;19970;-68
2022/01/14 13:25:47;;;;;;;;;;;4.60;99.90;;;;;;5079830;28;19916;-68
2022/01/14 13:28:12;;;;;;;;;;;4.60;99.90;;;;;;5078715;28;19947;-71
2022/01/14 13:30:39;;;;;;;;;;;4.50;99.90;;;;;;5080080;28;19923;-69
2022/01/14 13:33:07;;;;;;;;;;;4.50;99.90;;;;;;5077750;28;19926;-68
2022/01/14 13:35:37;;;;;;;;;;;4.60;99.90;;;;;;5080325;28;19947;-70
2022/01/14 13:38:07;;;;;;;;;;;4.60;99.90;;;;;;5083880;28;20338;-69
2022/01/14 13:40:33;;;;;;;;;;;4.60;99.90;;;;;;5079790;28;19921;-65
2022/01/14 13:43:07;;;;;;;;;;;4.60;99.90;;;;;;5075908;28;20581;-71
2022/01/14 13:45:34;;;;;;;;;;;4.70;99.90;;;;;;5081663;28;19967;-69
2022/01/14 13:48:10;;;;;;;;;;;4.70;99.90;;;;;;5075456;28;20011;-69
2022/01/14 13:50:39;;;;;;;;;;;4.70;99.90;;;;;;5075091;28;19916;-69
2022/01/14 13:53:05;;;;;;;;;;;4.70;99.90;;;;;;5079862;28;20363;-69
2022/01/14 13:55:30;;;;;;;;;;;4.70;99.90;;;;;;5083382;28;19916;-70
2022/01/14 13:58:11;;;;;;;;;;;4.70;99.90;;;;;;5080641;28;20297;-71
2022/01/14 14:00:38;;;;;;;;;;;4.70;99.90;;;;;;5076068;28;19927;-70
2022/01/14 14:03:11;;;;;;;;;;;4.70;99.90;;;;;;5078222;28;19924;-69
2022/01/14 14:05:39;;;;;;;;;;;4.40;99.90;;;;;;5086475;28;20035;-71
2022/01/14 14:08:09;;;;;;;;;;;4.80;99.90;;;;;;5079071;28;19924;-69
2022/01/14 14:11:46;;;;;;;;;;;4.80;99.90;;;;;;5079111;28;20004;-69
2022/01/14 14:15:40;;;;;;;;;;;4.00;99.90;;;;;;5076555;28;19920;-70
2022/01/14 14:16:32;;;;;;;;;;;4.90;99.90;;;;;;5076082;28;19920;-70
2022/01/14 14:18:59;;;;;;;;;;;4.90;99.90;;;;;;5076488;28;19919;-71
2022/01/14 14:21:28;;;;;;;;;;;4.90;99.90;;;;;;5072859;28;19928;-72
2022/01/14 14:23:55;;;;;;;;;;;4.90;99.90;;;;;;5083777;28;19920;-69
2022/01/14 14:26:31;;;;;;;;;;;4.90;99.90;;;;;;5077963;28;19916;-70
2022/01/14 14:29:01;;;;;;;;;;;5.00;99.90;;;;;;5081204;28;20011;-69
2022/01/14 14:31:31;;;;;;;;;;;5.00;99.90;;;;;;5086940;28;19923;-71
2022/01/14 14:33:57;;;;;;;;;;;5.10;99.90;;;;;;5081422;28;19926;-70
2022/01/14 14:36:26;;;;;;;;;;;5.10;99.90;;;;;;5078314;28;20221;-71
2022/01/14 14:38:52;;;;;;;;;;;5.10;99.90;;;;;;5076432;28;19923;-69
2022/01/14 14:41:18;;;;;;;;;;;5.10;99.90;;;;;;5082727;28;20012;-68
2022/01/14 14:43:46;;;;;;;;;;;5.00;99.90;;;;;;5079238;28;20218;-69
2022/01/14 14:46:11;;;;;;;;;;;5.10;99.90;;;;;;5078879;28;19912;-69
2022/01/14 14:48:37;;;;;;;;;;;5.20;99.90;;;;;;5080791;28;20019;-68
2022/01/14 14:51:04;;;;;;;;;;;5.20;99.90;;;;;;5075631;28;22051;-70
2022/01/14 14:53:30;;;;;;;;;;;5.20;99.90;;;;;;5080606;28;19923;-69
2022/01/14 14:55:55;;;;;;;;;;;5.20;99.90;;;;;;5084003;28;19920;-70
2022/01/14 14:58:21;;;;;;;;;;;5.20;99.90;;;;;;5085399;28;19921;-67
2022/01/14 15:00:46;;;;;;;;;;;5.20;99.90;;;;;;5079297;28;19916;-68
2022/01/14 15:03:12;;;;;;;;;;;5.20;99.90;;;;;;5080709;28;19923;-69